Time;durP1;ratioP1;P1;durP2;ratioP2;P2;SDS_P1;SDS_P2;PMS_P1;PMS_P2;Temp;Humidity;BMP_temperature;BMP_pressure;BME280_temperature;BME280_humidity;BME280_pressure;Samples;Min_cycle;Max_cycle;Signal;HPM_P1;HPM_P2
2022/09/24 00:00:10;;;;;;;6.83;3.70;;;13.90;99.90;;;;;;5035292;28;20230;-73
2022/09/24 00:02:36;;;;;;;4.87;3.63;;;13.90;99.90;;;;;;5035122;28;20167;-73
2022/09/24 00:05:01;;;;;;;5.53;3.07;;;13.90;99.90;;;;;;5049792;28;20421;-73
2022/09/24 00:07:27;;;;;;;6.93;5.10;;;13.90;99.90;;;;;;5050150;28;20171;-73
2022/09/24 00:09:52;;;;;;;8.00;3.00;;;13.90;99.90;;;;;;5034729;28;20305;-73
2022/09/24 00:12:18;;;;;;;5.77;3.20;;;13.80;99.90;;;;;;5034757;28;20172;-73
2022/09/24 00:14:43;;;;;;;3.97;3.33;;;13.80;99.90;;;;;;5034466;28;20266;-73
2022/09/24 00:17:09;;;;;;;4.20;2.93;;;13.70;99.90;;;;;;5034495;28;20191;-73
2022/09/24 00:19:34;;;;;;;5.07;3.40;;;13.70;99.90;;;;;;5033414;28;20176;-73
2022/09/24 00:22:00;;;;;;;6.37;3.70;;;13.60;99.90;;;;;;5034482;28;20187;-73
2022/09/24 00:27:09;;;;;;;5.60;2.90;;;13.50;99.90;;;;;;5034459;28;20202;-72
2022/09/24 00:29:35;;;;;;;5.43;2.83;;;13.50;99.90;;;;;;5034448;28;20402;-72
2022/09/24 00:32:02;;;;;;;4.90;3.00;;;13.50;99.90;;;;;;5032939;28;20298;-72
2022/09/24 00:34:28;;;;;;;4.47;2.83;;;13.40;99.90;;;;;;5034125;28;20171;-72
2022/09/24 00:36:53;;;;;;;3.87;3.43;;;13.30;99.90;;;;;;5034126;28;20423;-72
2022/09/24 00:39:19;;;;;;;3.40;3.03;;;13.30;99.90;;;;;;5034227;28;20398;-72
2022/09/24 00:41:48;;;;;;;4.60;3.47;;;13.20;99.90;;;;;;5034187;28;20175;-72
2022/09/24 00:44:44;;;;;;;5.67;5.17;;;13.20;99.90;;;;;;5033993;28;20246;-72
2022/09/24 00:47:19;;;;;;;5.20;3.50;;;13.30;99.90;;;;;;5034008;28;20425;-72
2022/09/24 00:49:47;;;;;;;5.10;3.03;;;13.30;99.90;;;;;;5034018;28;20418;-72
2022/09/24 00:52:13;;;;;;;3.83;3.53;;;13.30;99.90;;;;;;5049218;28;20449;-72
2022/09/24 00:54:40;;;;;;;4.10;2.93;;;13.30;99.90;;;;;;5033605;28;20418;-72
2022/09/24 00:57:06;;;;;;;6.23;3.53;;;13.40;99.90;;;;;;5032458;28;20564;-72
2022/09/24 00:59:32;;;;;;;5.20;4.20;;;13.40;99.90;;;;;;5033861;28;20394;-72
2022/09/24 01:01:58;;;;;;;5.23;3.30;;;13.40;99.90;;;;;;5049163;28;21004;-72
2022/09/24 01:04:26;;;;;;;3.67;3.10;;;13.40;99.90;;;;;;5033524;28;20429;-72
2022/09/24 01:06:52;;;;;;;4.87;2.80;;;13.50;99.90;;;;;;5033614;28;20728;-72
2022/09/24 01:09:20;;;;;;;4.73;3.00;;;13.50;99.90;;;;;;5033628;28;20433;-72
2022/09/24 01:11:55;;;;;;;7.83;3.00;;;13.60;99.90;;;;;;5033569;28;20287;-72
2022/09/24 01:14:42;;;;;;;5.57;2.70;;;13.50;99.90;;;;;;5033406;28;20473;-72
2022/09/24 01:17:23;;;;;;;3.83;2.80;;;13.50;99.90;;;;;;5033488;28;20424;-72
2022/09/24 01:20:20;;;;;;;4.50;3.20;;;13.50;99.90;;;;;;5033450;28;20379;-72
2022/09/24 01:22:54;;;;;;;4.80;3.10;;;13.50;99.90;;;;;;5033512;28;20472;-72
2022/09/24 01:25:58;;;;;;;3.40;3.10;;;13.40;99.90;;;;;;5031856;28;20525;-72
2022/09/24 01:29:11;;;;;;;3.77;2.87;;;13.40;99.90;;;;;;5033719;28;20497;-73
2022/09/24 01:31:45;;;;;;;4.23;2.93;;;13.40;99.90;;;;;;5031230;28;20460;-73
2022/09/24 01:34:16;;;;;;;5.03;4.37;;;13.30;99.90;;;;;;5032983;28;20502;-73
2022/09/24 01:36:43;;;;;;;4.83;4.27;;;13.30;99.90;;;;;;5033400;28;20468;-74
2022/09/24 01:39:09;;;;;;;4.27;3.13;;;13.30;99.90;;;;;;5032015;28;20413;-73
2022/09/24 01:41:37;;;;;;;6.20;3.70;;;13.30;99.90;;;;;;5033069;28;20472;-73
2022/09/24 01:44:06;;;;;;;5.70;3.60;;;13.30;99.90;;;;;;5032961;28;20411;-73
2022/09/24 01:46:32;;;;;;;8.27;4.07;;;13.30;99.90;;;;;;5032802;28;20461;-74
2022/09/24 01:48:58;;;;;;;4.90;3.60;;;13.30;99.90;;;;;;5032878;28;20434;-74
2022/09/24 01:51:44;;;;;;;7.07;4.60;;;13.30;99.90;;;;;;5048113;28;20497;-74
2022/09/24 01:54:22;;;;;;;5.27;3.27;;;13.30;99.90;;;;;;5032751;28;20661;-74
2022/09/24 01:56:54;;;;;;;5.00;3.27;;;13.30;99.90;;;;;;5031733;28;20433;-74
2022/09/24 01:59:28;;;;;;;6.43;3.17;;;13.30;99.90;;;;;;5032646;28;20402;-74
2022/09/24 02:02:08;;;;;;;6.57;3.53;;;13.40;99.90;;;;;;5032737;28;20945;-72
2022/09/24 02:04:41;;;;;;;6.63;3.73;;;13.40;99.90;;;;;;5032382;28;20453;-72
2022/09/24 02:07:14;;;;;;;12.00;3.80;;;13.40;99.90;;;;;;5032566;28;20422;-72
2022/09/24 02:09:42;;;;;;;5.50;2.97;;;13.40;99.90;;;;;;5032574;28;20460;-73
2022/09/24 02:12:16;;;;;;;5.67;4.17;;;13.40;99.90;;;;;;5032486;28;20454;-73
2022/09/24 02:14:55;;;;;;;6.40;3.97;;;13.50;99.90;;;;;;5030945;28;20420;-73
2022/09/24 02:17:26;;;;;;;7.03;3.60;;;13.50;99.90;;;;;;5031163;28;20411;-73
2022/09/24 02:19:54;;;;;;;4.80;3.80;;;13.50;99.90;;;;;;5032293;28;20394;-73
2022/09/24 02:22:20;;;;;;;4.40;3.83;;;13.50;99.90;;;;;;5032026;28;20411;-73
2022/09/24 02:24:56;;;;;;;6.60;3.70;;;13.40;99.90;;;;;;5032007;28;20769;-72
2022/09/24 02:27:27;;;;;;;5.17;3.40;;;13.40;99.90;;;;;;5032301;28;20737;-73
2022/09/24 02:29:54;;;;;;;3.83;3.50;;;13.40;99.90;;;;;;5030914;28;20417;-73
2022/09/24 02:32:21;;;;;;;4.10;3.23;;;13.40;99.90;;;;;;5032207;28;20421;-73
2022/09/24 02:34:52;;;;;;;5.37;3.30;;;13.30;99.90;;;;;;5031783;28;20410;-72
2022/09/24 02:37:20;;;;;;;6.73;3.53;;;13.30;99.90;;;;;;5032154;28;20406;-72
2022/09/24 02:39:47;;;;;;;4.83;3.70;;;13.30;99.90;;;;;;5032109;28;20418;-73
2022/09/24 02:42:14;;;;;;;5.37;3.60;;;13.20;99.90;;;;;;5032278;28;20507;-73
2022/09/24 02:44:40;;;;;;;4.23;2.83;;;13.20;99.90;;;;;;5032112;28;20417;-73
2022/09/24 02:47:06;;;;;;;3.20;2.90;;;13.20;99.90;;;;;;5047533;28;20438;-73
2022/09/24 02:49:31;;;;;;;5.57;4.53;;;13.20;99.90;;;;;;5032223;28;20237;-72
2022/09/24 02:51:57;;;;;;;4.00;3.53;;;13.20;99.90;;;;;;5031052;28;20458;-73
2022/09/24 02:54:24;;;;;;;8.60;5.60;;;13.20;99.90;;;;;;5031991;28;20648;-73
2022/09/24 02:56:50;;;;;;;5.70;4.70;;;13.20;99.90;;;;;;5031963;28;20199;-73
2022/09/24 02:59:16;;;;;;;8.50;3.87;;;13.10;99.90;;;;;;5030658;28;20816;-73
2022/09/24 03:01:41;;;;;;;7.77;4.60;;;13.10;99.90;;;;;;5031858;28;20410;-73
2022/09/24 03:04:07;;;;;;;6.33;3.10;;;13.10;99.90;;;;;;5031956;28;20429;-73
2022/09/24 03:06:33;;;;;;;6.97;3.87;;;13.00;99.90;;;;;;5047099;28;20282;-73
2022/09/24 03:09:01;;;;;;;7.17;4.03;;;13.00;99.90;;;;;;5031863;28;20206;-73
2022/09/24 03:11:26;;;;;;;6.40;3.87;;;13.00;99.90;;;;;;5031948;28;20482;-74
2022/09/24 03:13:52;;;;;;;6.63;3.93;;;13.00;99.90;;;;;;5031910;28;20433;-73
2022/09/24 03:16:18;;;;;;;5.10;3.50;;;13.00;99.90;;;;;;5031575;28;20194;-74
2022/09/24 03:18:44;;;;;;;4.77;3.80;;;13.10;99.90;;;;;;5032073;28;20194;-74
2022/09/24 03:21:12;;;;;;;5.30;3.50;;;13.10;99.90;;;;;;5032014;28;20580;-73
2022/09/24 03:23:38;;;;;;;6.97;4.70;;;13.10;99.90;;;;;;5031955;28;20505;-72
2022/09/24 03:26:04;;;;;;;7.27;3.80;;;13.10;99.90;;;;;;5030348;28;20521;-73
2022/09/24 03:28:30;;;;;;;5.80;4.50;;;13.20;99.90;;;;;;5031934;28;20551;-73
2022/09/24 03:30:58;;;;;;;5.27;3.90;;;13.10;99.90;;;;;;5031529;28;20191;-73
2022/09/24 03:33:35;;;;;;;4.83;4.07;;;13.10;99.90;;;;;;5033355;28;20406;-73
2022/09/24 03:36:16;;;;;;;7.20;4.80;;;13.10;99.90;;;;;;5033832;28;20437;-73
2022/09/24 03:38:43;;;;;;;18.40;12.80;;;13.10;99.90;;;;;;5035404;28;20819;-74
2022/09/24 03:41:10;;;;;;;8.20;5.90;;;13.10;99.90;;;;;;5035434;28;20778;-74
2022/09/24 03:43:36;;;;;;;7.80;5.00;;;13.10;99.90;;;;;;5050462;28;20450;-73
2022/09/24 03:46:03;;;;;;;8.70;4.70;;;13.10;99.90;;;;;;5034919;28;20926;-74
2022/09/24 03:48:31;;;;;;;4.13;3.73;;;13.20;99.90;;;;;;5035123;28;20774;-73
2022/09/24 03:51:01;;;;;;;8.50;5.03;;;13.20;99.90;;;;;;5035144;28;20619;-74
2022/09/24 03:53:27;;;;;;;6.00;4.27;;;13.20;99.90;;;;;;5035110;28;20402;-74
2022/09/24 03:55:55;;;;;;;8.27;5.10;;;13.10;99.90;;;;;;5034763;28;20454;-73
2022/09/24 03:58:21;;;;;;;7.07;4.10;;;13.20;99.90;;;;;;5035048;28;20615;-74
2022/09/24 04:00:47;;;;;;;8.70;4.80;;;13.20;99.90;;;;;;5034982;28;20417;-74
2022/09/24 04:03:12;;;;;;;6.53;4.63;;;13.20;99.90;;;;;;5034946;28;20406;-73
2022/09/24 04:05:39;;;;;;;5.00;3.97;;;13.20;99.90;;;;;;5034852;28;20261;-73
2022/09/24 04:08:04;;;;;;;7.00;4.43;;;13.20;99.90;;;;;;5034828;28;20199;-73
2022/09/24 04:10:30;;;;;;;7.37;4.83;;;13.20;99.90;;;;;;5034680;28;20481;-73
2022/09/24 04:12:56;;;;;;;7.70;5.97;;;13.20;99.90;;;;;;5034741;28;20405;-73
2022/09/24 04:15:22;;;;;;;6.77;5.23;;;13.20;99.90;;;;;;5034540;28;20226;-73
2022/09/24 04:17:53;;;;;;;8.33;5.80;;;13.20;99.90;;;;;;5049889;28;20429;-74
2022/09/24 04:20:21;;;;;;;5.70;4.97;;;13.20;99.90;;;;;;5034623;28;20564;-73
2022/09/24 04:22:51;;;;;;;6.83;6.13;;;13.20;99.90;;;;;;5034525;28;20414;-73
2022/09/24 04:25:16;;;;;;;5.70;4.73;;;13.20;99.90;;;;;;5049572;28;20453;-74
2022/09/24 04:27:43;;;;;;;60.70;33.03;;;13.20;99.90;;;;;;5034750;28;20446;-74
2022/09/24 04:30:11;;;;;;;16.93;9.90;;;13.20;99.90;;;;;;5049853;28;20176;-74
2022/09/24 04:32:37;;;;;;;12.83;7.10;;;13.30;99.90;;;;;;5034617;28;20410;-74
2022/09/24 04:35:03;;;;;;;7.03;4.67;;;13.30;99.90;;;;;;5034177;28;20425;-74
2022/09/24 04:37:29;;;;;;;8.13;5.57;;;13.20;99.90;;;;;;5034443;28;20637;-74
2022/09/24 04:39:54;;;;;;;8.30;5.53;;;13.20;99.90;;;;;;5034400;28;20462;-73
2022/09/24 04:42:20;;;;;;;11.47;6.20;;;13.20;99.90;;;;;;5034343;28;20175;-73
2022/09/24 04:44:46;;;;;;;7.27;4.87;;;13.20;99.90;;;;;;5033887;28;20172;-75
2022/09/24 04:47:13;;;;;;;9.57;6.53;;;13.20;99.90;;;;;;5034238;28;20215;-73
2022/09/24 04:49:39;;;;;;;7.30;5.93;;;13.10;99.90;;;;;;5034132;28;20214;-73
2022/09/24 04:52:04;;;;;;;8.00;5.60;;;13.10;99.90;;;;;;5034198;28;20963;-73
2022/09/24 04:54:30;;;;;;;7.50;5.77;;;13.10;99.90;;;;;;5033805;28;20412;-73
2022/09/24 04:56:56;;;;;;;9.73;5.40;;;13.10;99.90;;;;;;5034091;28;20192;-74
2022/09/24 04:59:22;;;;;;;5.70;5.10;;;13.10;99.90;;;;;;5033981;28;20421;-74
2022/09/24 05:01:48;;;;;;;5.80;5.20;;;13.10;99.90;;;;;;5033889;28;20608;-74
2022/09/24 05:04:14;;;;;;;10.23;5.80;;;13.00;99.90;;;;;;5049236;28;20449;-75
2022/09/24 05:06:39;;;;;;;8.87;5.87;;;13.00;99.90;;;;;;5033683;28;20505;-74
2022/09/24 05:09:05;;;;;;;6.93;5.00;;;13.00;99.90;;;;;;5034129;28;20175;-74
2022/09/24 05:11:30;;;;;;;7.57;5.90;;;12.90;99.90;;;;;;5034025;28;20202;-74
2022/09/24 05:13:56;;;;;;;9.03;5.23;;;12.90;99.90;;;;;;5034078;28;20179;-74
2022/09/24 05:16:21;;;;;;;8.67;5.17;;;12.90;99.90;;;;;;5033295;28;20676;-74
2022/09/24 05:18:47;;;;;;;7.50;5.17;;;12.90;99.90;;;;;;5033783;28;20171;-73
2022/09/24 05:21:12;;;;;;;7.03;5.27;;;12.80;99.90;;;;;;5033558;28;20171;-73
2022/09/24 05:23:38;;;;;;;6.00;5.23;;;12.80;99.90;;;;;;5048758;28;20168;-73
2022/09/24 05:28:47;;;;;;;6.37;4.70;;;12.80;99.90;;;;;;5033429;28;20269;-74
2022/09/24 05:31:13;;;;;;;7.83;4.90;;;12.70;99.90;;;;;;5048538;28;20482;-74
2022/09/24 05:33:38;;;;;;;11.50;4.77;;;12.80;99.90;;;;;;5033507;28;20250;-75
2022/09/24 05:36:04;;;;;;;7.37;5.57;;;12.70;99.90;;;;;;5032769;28;20188;-74
2022/09/24 05:38:31;;;;;;;6.37;5.00;;;12.70;99.90;;;;;;5033534;28;20167;-72
2022/09/24 05:40:57;;;;;;;11.23;4.80;;;12.70;99.90;;;;;;5033197;28;20167;-72
2022/09/24 05:43:26;;;;;;;7.00;4.90;;;12.70;99.90;;;;;;5033085;28;20506;-72
2022/09/24 05:45:53;;;;;;;6.73;4.13;;;12.70;99.90;;;;;;5032554;28;20211;-72
2022/09/24 05:48:19;;;;;;;9.40;5.60;;;12.70;99.90;;;;;;5032937;28;20492;-72
2022/09/24 05:50:45;;;;;;;6.27;5.67;;;12.80;99.90;;;;;;5032962;28;20568;-73
2022/09/24 05:53:11;;;;;;;8.67;5.70;;;12.80;99.90;;;;;;5032888;28;20425;-72
2022/09/24 05:55:37;;;;;;;6.70;4.27;;;12.90;99.90;;;;;;5031829;28;20180;-72
2022/09/24 05:58:09;;;;;;;5.97;4.90;;;12.90;99.90;;;;;;5033003;28;20452;-73
2022/09/24 06:00:35;;;;;;;6.60;4.83;;;12.90;99.90;;;;;;5033239;28;20164;-74
2022/09/24 06:03:04;;;;;;;6.70;5.23;;;13.00;99.90;;;;;;5032774;28;20406;-74
2022/09/24 06:05:29;;;;;;;7.13;5.00;;;13.00;99.90;;;;;;5048113;28;20430;-74
2022/09/24 06:07:55;;;;;;;7.10;5.67;;;13.10;99.90;;;;;;5032978;28;20459;-74
2022/09/24 06:10:21;;;;;;;5.70;4.50;;;13.10;99.90;;;;;;5032863;28;20249;-73
2022/09/24 06:12:47;;;;;;;5.93;5.03;;;13.10;99.90;;;;;;5032634;28;20309;-74
2022/09/24 06:15:13;;;;;;;7.63;5.10;;;13.10;99.90;;;;;;5032201;28;20184;-73
2022/09/24 06:17:38;;;;;;;7.60;4.90;;;13.10;99.90;;;;;;5031075;28;20952;-74
2022/09/24 06:20:04;;;;;;;8.87;4.20;;;13.10;99.90;;;;;;5032574;28;20234;-74
2022/09/24 06:22:30;;;;;;;9.10;4.97;;;13.20;99.90;;;;;;5033034;28;20170;-74
2022/09/24 06:24:58;;;;;;;6.27;4.87;;;13.20;99.90;;;;;;5032500;28;20421;-74
2022/09/24 06:27:24;;;;;;;8.73;4.90;;;13.30;99.90;;;;;;5032594;28;20168;-74
2022/09/24 06:29:49;;;;;;;8.20;5.37;;;13.40;99.90;;;;;;5032434;28;20974;-74
2022/09/24 06:32:15;;;;;;;4.87;4.37;;;13.40;99.90;;;;;;5032378;28;20273;-72
2022/09/24 06:34:40;;;;;;;9.60;5.63;;;13.40;99.90;;;;;;5032495;28;20533;-73
2022/09/24 06:37:06;;;;;;;6.40;4.97;;;13.50;99.90;;;;;;5032500;28;20230;-74
2022/09/24 06:39:31;;;;;;;7.00;5.03;;;13.60;99.90;;;;;;5032480;28;20250;-73
2022/09/24 06:41:57;;;;;;;10.03;5.20;;;13.60;99.90;;;;;;5032657;28;20171;-78
2022/09/24 06:44:22;;;;;;;6.73;4.27;;;13.70;99.90;;;;;;5033729;28;20168;-77
2022/09/24 06:46:48;;;;;;;5.93;3.90;;;13.70;99.90;;;;;;5034056;28;20191;-78
2022/09/24 06:49:13;;;;;;;7.90;4.97;;;13.80;99.90;;;;;;5033047;28;20184;-74
2022/09/24 06:51:39;;;;;;;6.90;4.10;;;13.90;99.90;;;;;;5031872;28;20203;-74
2022/09/24 06:54:05;;;;;;;7.90;4.33;;;13.90;99.90;;;;;;5031904;28;20167;-73
2022/09/24 06:56:30;;;;;;;6.17;5.53;;;14.00;99.90;;;;;;5031624;28;20278;-74
2022/09/24 06:58:56;;;;;;;6.93;3.90;;;14.10;99.90;;;;;;5031844;28;20168;-72
2022/09/24 07:01:21;;;;;;;6.63;5.30;;;14.10;99.90;;;;;;5031867;28;20180;-74
2022/09/24 07:03:47;;;;;;;7.30;4.93;;;14.20;99.90;;;;;;5031823;28;20221;-72
2022/09/24 07:06:12;;;;;;;7.73;4.80;;;14.30;99.90;;;;;;5031582;28;20750;-72
2022/09/24 07:08:38;;;;;;;5.20;4.30;;;14.40;99.90;;;;;;5035909;28;20167;-73
2022/09/24 07:11:04;;;;;;;5.60;4.90;;;14.50;99.90;;;;;;5036048;28;20219;-73
2022/09/24 07:13:29;;;;;;;7.87;6.50;;;14.60;99.90;;;;;;5035899;28;20655;-72
2022/09/24 07:15:55;;;;;;;4.20;3.70;;;14.70;99.90;;;;;;5035434;28;20426;-72
2022/09/24 07:18:21;;;;;;;4.53;4.10;;;14.80;99.90;;;;;;5051145;28;20178;-73
2022/09/24 07:20:55;;;;;;;8.17;5.70;;;14.80;99.90;;;;;;5035784;28;20201;-73
2022/09/24 07:23:22;;;;;;;9.00;4.60;;;14.90;99.90;;;;;;5035273;28;20233;-73
2022/09/24 07:25:48;;;;;;;4.63;3.40;;;15.00;99.90;;;;;;5034881;28;20470;-73
2022/09/24 07:28:18;;;;;;;5.73;4.33;;;15.10;99.90;;;;;;5035981;28;20836;-75
2022/09/24 07:30:43;;;;;;;5.20;4.70;;;15.20;99.90;;;;;;5035765;28;20803;-74
2022/09/24 07:33:09;;;;;;;6.70;4.80;;;15.30;99.90;;;;;;5035223;28;20410;-74
2022/09/24 07:35:38;;;;;;;7.40;4.90;;;15.50;99.90;;;;;;5034806;28;20187;-74
2022/09/24 07:38:06;;;;;;;6.97;4.80;;;15.70;99.90;;;;;;5035217;28;20246;-74
2022/09/24 07:40:32;;;;;;;7.80;5.63;;;15.80;99.90;;;;;;5033699;28;20414;-73
2022/09/24 07:42:59;;;;;;;5.97;4.40;;;15.90;99.90;;;;;;5050420;28;20417;-74
2022/09/24 07:45:30;;;;;;;5.37;4.17;;;16.10;99.90;;;;;;5034918;28;20485;-73
2022/09/24 07:48:00;;;;;;;6.17;4.50;;;16.30;99.90;;;;;;5050470;28;20949;-72
2022/09/24 07:50:27;;;;;;;4.93;3.93;;;16.40;99.90;;;;;;5034672;28;20461;-73
2022/09/24 07:52:53;;;;;;;9.77;4.80;;;16.40;99.90;;;;;;5035008;28;20772;-74
2022/09/24 07:55:18;;;;;;;6.63;4.00;;;16.50;99.90;;;;;;5034809;28;20422;-73
2022/09/24 07:57:52;;;;;;;5.93;4.37;;;16.60;99.90;;;;;;5034847;28;20172;-73
2022/09/24 08:00:19;;;;;;;7.70;4.87;;;16.80;99.90;;;;;;5034862;28;20174;-73
2022/09/24 08:02:46;;;;;;;7.83;4.37;;;16.80;99.90;;;;;;5034902;28;20398;-73
2022/09/24 08:05:14;;;;;;;4.50;4.10;;;16.90;99.90;;;;;;5034538;28;20490;-72
2022/09/24 08:07:50;;;;;;;4.97;4.33;;;16.90;99.90;;;;;;5034393;28;20922;-72
2022/09/24 08:10:15;;;;;;;7.43;4.37;;;16.80;99.90;;;;;;5034434;28;20982;-73
2022/09/24 08:12:41;;;;;;;6.43;5.30;;;16.70;99.90;;;;;;5034433;28;20485;-73
2022/09/24 08:15:07;;;;;;;10.43;4.93;;;16.70;99.90;;;;;;5050050;28;20275;-73
2022/09/24 08:17:32;;;;;;;3.70;3.33;;;16.70;99.90;;;;;;5034479;28;20218;-73
2022/09/24 08:19:58;;;;;;;4.70;3.03;;;16.80;99.90;;;;;;5033792;28;20414;-73
2022/09/24 08:22:25;;;;;;;6.27;4.97;;;16.80;99.90;;;;;;5034406;28;20536;-73
2022/09/24 08:24:51;;;;;;;4.33;3.67;;;16.90;99.90;;;;;;5034194;28;20202;-73
2022/09/24 08:27:22;;;;;;;9.40;3.80;;;17.10;99.90;;;;;;5034355;28;21115;-73
2022/09/24 08:29:48;;;;;;;7.97;4.60;;;17.20;99.90;;;;;;5034344;28;20425;-73
2022/09/24 08:32:13;;;;;;;5.97;4.47;;;17.30;99.90;;;;;;5034134;28;20450;-73
2022/09/24 08:34:39;;;;;;;8.80;5.57;;;17.50;99.90;;;;;;5034009;28;20176;-73
2022/09/24 08:37:08;;;;;;;10.10;5.13;;;17.60;99.90;;;;;;5033932;28;20271;-73
2022/09/24 08:39:34;;;;;;;8.30;4.77;;;17.70;99.90;;;;;;5034040;28;20172;-73
2022/09/24 08:42:03;;;;;;;15.67;6.07;;;17.80;99.90;;;;;;5032650;28;20491;-73
2022/09/24 08:47:44;;;;;;;15.10;5.00;;;18.00;99.90;;;;;;5033845;28;20448;-73
2022/09/24 08:50:18;;;;;;;6.30;5.13;;;18.30;99.90;;;;;;5033751;28;20931;-72
2022/09/24 08:53:06;;;;;;;6.63;5.10;;;18.50;99.90;;;;;;5032648;28;20449;-73
2022/09/24 08:55:44;;;;;;;13.83;5.63;;;18.70;99.90;;;;;;5033349;28;20410;-73
2022/09/24 08:58:09;;;;;;;6.37;5.50;;;19.00;99.90;;;;;;5032318;28;20413;-73
2022/09/24 09:00:50;;;;;;;10.37;6.10;;;19.30;99.90;;;;;;5033606;28;20406;-72
2022/09/24 09:03:31;;;;;;;6.40;4.90;;;19.40;99.90;;;;;;5040046;28;20572;-72
2022/09/24 09:06:15;;;;;;;6.23;5.63;;;19.80;99.90;;;;;;5053235;28;20782;-73
2022/09/24 09:09:00;;;;;;;6.80;6.10;;;20.30;99.90;;;;;;5053620;28;20959;-74
2022/09/24 09:11:31;;;;;;;7.00;5.23;;;20.80;99.90;;;;;;5053288;28;21017;-74
2022/09/24 09:14:18;;;;;;;6.33;5.63;;;21.30;99.90;;;;;;5053259;28;20402;-74
2022/09/24 09:16:57;;;;;;;7.20;6.30;;;21.80;99.90;;;;;;5053263;28;20929;-73
2022/09/24 09:19:28;;;;;;;7.23;6.53;;;21.80;99.90;;;;;;5053298;28;20465;-73
2022/09/24 09:22:04;;;;;;;7.33;6.43;;;21.60;99.90;;;;;;5053208;28;20405;-73
2022/09/24 09:24:44;;;;;;;11.80;5.87;;;21.70;99.90;;;;;;5052687;28;20459;-73
2022/09/24 09:27:13;;;;;;;10.60;6.27;;;21.60;99.90;;;;;;5052869;28;20428;-74
2022/09/24 09:29:40;;;;;;;10.80;7.70;;;21.80;99.90;;;;;;5051341;28;20496;-74
2022/09/24 09:32:44;;;;;;;7.77;6.43;;;21.90;99.90;;;;;;5052246;28;20456;-72
2022/09/24 09:35:24;;;;;;;8.97;6.83;;;22.00;99.90;;;;;;5052451;28;20408;-72
2022/09/24 09:38:22;;;;;;;11.17;7.00;;;22.30;99.90;;;;;;5052940;28;20400;-73
2022/09/24 09:41:16;;;;;;;13.33;8.80;;;22.60;99.90;;;;;;5052931;28;20944;-73
2022/09/24 09:43:42;;;;;;;11.30;7.27;;;22.80;99.90;;;;;;5052847;28;20397;-73
2022/09/24 09:46:24;;;;;;;10.20;8.07;;;22.90;99.90;;;;;;5052568;28;20450;-73
2022/09/24 09:48:55;;;;;;;11.70;8.57;;;23.00;99.90;;;;;;5052846;28;20361;-73
2022/09/24 09:51:25;;;;;;;14.30;9.03;;;23.10;99.90;;;;;;5052660;28;20489;-73
2022/09/24 09:53:55;;;;;;;9.40;7.13;;;23.10;99.90;;;;;;5052308;28;20401;-73
2022/09/24 09:56:36;;;;;;;12.83;8.50;;;23.10;99.90;;;;;;5052090;28;20432;-73
2022/09/24 09:59:09;;;;;;;14.37;8.67;;;22.90;99.90;;;;;;5052445;28;20397;-74
2022/09/24 10:01:40;;;;;;;11.20;8.20;;;22.40;99.90;;;;;;5052285;28;20753;-73
2022/09/24 10:04:33;;;;;;;12.20;8.13;;;22.30;99.90;;;;;;5050623;28;20489;-74
2022/09/24 10:07:13;;;;;;;16.83;7.90;;;22.00;99.90;;;;;;5051723;28;20437;-74
2022/09/24 10:09:41;;;;;;;13.77;10.30;;;22.10;99.90;;;;;;5053132;28;20437;-74
2022/09/24 10:12:13;;;;;;;14.17;10.07;;;21.90;99.90;;;;;;5052712;28;20457;-73
2022/09/24 10:14:39;;;;;;;13.43;9.13;;;21.90;99.90;;;;;;5050999;28;20554;-74
2022/09/24 10:17:05;;;;;;;16.10;9.00;;;21.90;99.90;;;;;;5051585;28;20978;-73
2022/09/24 10:19:35;;;;;;;15.50;9.60;;;21.90;99.90;;;;;;5052134;28;20651;-73
2022/09/24 10:22:14;;;;;;;15.23;10.50;;;21.80;99.90;;;;;;5052081;28;20408;-73
2022/09/24 10:24:42;;;;;;;13.40;9.73;;;21.90;99.90;;;;;;5051580;28;20397;-73
2022/09/24 10:27:12;;;;;;;13.80;9.77;;;22.10;99.90;;;;;;5004859;28;20475;-73
2022/09/24 10:32:25;;;;;;;14.87;10.67;;;22.60;99.90;;;;;;4992479;28;20466;-73
2022/09/24 10:35:21;;;;;;;10.73;8.80;;;22.60;99.90;;;;;;4990955;28;20502;-73
2022/09/24 10:37:56;;;;;;;17.67;9.73;;;22.80;99.90;;;;;;4998544;28;20412;-73
2022/09/24 10:40:29;;;;;;;12.33;8.40;;;22.70;99.90;;;;;;4992776;28;20407;-73
2022/09/24 10:43:00;;;;;;;13.40;10.03;;;22.70;99.90;;;;;;4992612;28;21021;-73
2022/09/24 10:45:56;;;;;;;12.40;8.43;;;22.60;99.90;;;;;;4992468;28;20420;-73
2022/09/24 10:48:43;;;;;;;12.20;7.80;;;22.50;99.90;;;;;;4992633;28;20766;-73
2022/09/24 10:51:33;;;;;;;13.17;7.00;;;22.50;99.90;;;;;;4991357;28;20463;-72
2022/09/24 10:54:00;;;;;;;10.43;7.27;;;22.30;99.90;;;;;;4992614;28;20442;-72
2022/09/24 10:56:50;;;;;;;14.50;8.63;;;22.00;99.90;;;;;;4992454;28;20511;-73
2022/09/24 10:59:45;;;;;;;14.87;7.50;;;21.80;99.90;;;;;;4992600;28;20173;-73
2022/09/24 11:02:48;;;;;;;9.47;6.90;;;21.60;99.90;;;;;;4991150;28;20419;-73
2022/09/24 11:05:20;;;;;;;9.70;6.43;;;21.50;99.90;;;;;;4990632;28;20458;-74
2022/09/24 11:08:06;;;;;;;12.20;8.23;;;21.40;99.90;;;;;;4992297;28;20416;-73
2022/09/24 11:10:44;;;;;;;12.53;7.10;;;21.30;99.90;;;;;;4992453;28;20483;-72
2022/09/24 11:13:18;;;;;;;11.10;6.73;;;21.00;99.90;;;;;;4992360;28;20435;-73
2022/09/24 11:16:15;;;;;;;11.03;7.20;;;21.00;99.90;;;;;;4990880;28;20458;-73
2022/09/24 11:19:01;;;;;;;11.43;7.37;;;20.90;99.90;;;;;;4991151;28;20412;-73
2022/09/24 11:22:04;;;;;;;9.50;7.00;;;20.80;99.90;;;;;;4992413;28;20431;-73
2022/09/24 11:24:48;;;;;;;9.20;7.10;;;20.80;99.90;;;;;;4990973;28;20470;-73
2022/09/24 11:27:39;;;;;;;11.00;7.80;;;20.70;99.90;;;;;;4992197;28;20519;-73
2022/09/24 11:30:21;;;;;;;12.20;7.97;;;20.80;99.90;;;;;;4992291;28;20431;-74
2022/09/24 11:33:07;;;;;;;12.20;8.67;;;20.90;99.90;;;;;;4992203;28;21073;-74
2022/09/24 11:36:03;;;;;;;11.60;9.30;;;21.10;99.90;;;;;;4991985;28;20523;-74
2022/09/24 11:39:00;;;;;;;12.30;9.37;;;21.20;99.90;;;;;;4990640;28;20499;-73
2022/09/24 11:41:54;;;;;;;11.60;9.23;;;21.30;99.90;;;;;;4990343;28;20467;-72
2022/09/24 11:44:45;;;;;;;12.47;8.47;;;21.40;99.90;;;;;;4991905;28;20919;-73
2022/09/24 11:47:30;;;;;;;13.60;6.70;;;21.40;99.90;;;;;;4994196;28;20798;-73
2022/09/24 11:50:26;;;;;;;12.57;8.60;;;21.50;99.90;;;;;;4992531;28;20416;-73
2022/09/24 11:52:55;;;;;;;9.77;7.80;;;21.50;99.90;;;;;;4991973;28;20740;-73
2022/09/24 11:55:33;;;;;;;11.57;7.47;;;21.50;99.90;;;;;;4995084;28;20415;-74
2022/09/24 11:58:25;;;;;;;10.20;7.97;;;21.60;99.90;;;;;;4995580;28;20384;-73
2022/09/24 12:00:58;;;;;;;12.40;7.80;;;21.60;99.90;;;;;;4995613;28;20392;-73
2022/09/24 12:03:38;;;;;;;12.97;7.70;;;21.50;99.90;;;;;;4995553;28;20392;-73
2022/09/24 12:06:12;;;;;;;14.00;7.10;;;21.60;99.90;;;;;;4995099;28;20412;-73
2022/09/24 12:08:47;;;;;;;10.47;7.80;;;21.60;99.90;;;;;;4995493;28;20412;-73
2022/09/24 12:11:34;;;;;;;9.47;7.00;;;21.40;99.90;;;;;;4995053;28;20506;-73
2022/09/24 12:14:04;;;;;;;10.17;7.53;;;21.40;99.90;;;;;;4995252;28;20923;-73
2022/09/24 12:16:35;;;;;;;10.73;6.97;;;21.30;99.90;;;;;;4994911;28;20412;-72
2022/09/24 12:19:11;;;;;;;10.53;7.80;;;21.10;99.90;;;;;;4995189;28;20408;-73
2022/09/24 12:21:39;;;;;;;16.07;9.50;;;21.00;99.90;;;;;;4995134;28;20403;-73
2022/09/24 12:24:12;;;;;;;11.63;7.70;;;20.80;99.90;;;;;;4995196;28;20437;-74
2022/09/24 12:26:40;;;;;;;9.00;6.60;;;20.70;99.90;;;;;;4994794;28;20507;-73
2022/09/24 12:35:17;;;;;;;11.50;9.57;;;20.30;99.90;;;;;;4994754;28;20395;-74
2022/09/24 12:37:45;;;;;;;12.00;8.10;;;20.20;99.90;;;;;;4994964;28;20466;-74
2022/09/24 12:40:11;;;;;;;19.23;9.13;;;20.20;99.90;;;;;;4994909;28;20408;-73
2022/09/24 12:42:45;;;;;;;12.03;8.87;;;20.00;99.90;;;;;;4994893;28;20408;-73
2022/09/24 12:45:16;;;;;;;9.90;8.50;;;20.10;99.90;;;;;;4994503;28;20169;-73
2022/09/24 12:47:52;;;;;;;13.00;8.67;;;20.20;99.90;;;;;;4994713;28;20804;-74
2022/09/24 12:50:34;;;;;;;10.37;8.30;;;20.20;99.90;;;;;;4994332;28;20435;-74
2022/09/24 12:53:00;;;;;;;14.93;8.93;;;20.30;99.90;;;;;;4994502;28;20503;-73
2022/09/24 12:55:30;;;;;;;9.70;7.80;;;20.40;99.90;;;;;;4994372;28;20503;-73
2022/09/24 12:58:00;;;;;;;9.50;6.80;;;20.40;99.90;;;;;;4994909;28;20200;-74
2022/09/24 13:00:38;;;;;;;8.60;6.40;;;20.40;99.90;;;;;;4994712;28;20561;-72
2022/09/24 13:03:06;;;;;;;8.30;6.70;;;20.40;99.90;;;;;;4994451;28;20435;-73
2022/09/24 13:05:39;;;;;;;10.40;7.87;;;20.30;99.90;;;;;;4993836;28;20436;-73
2022/09/24 13:08:18;;;;;;;11.53;7.60;;;20.30;99.90;;;;;;4994181;28;20399;-74
2022/09/24 13:10:54;;;;;;;10.87;8.17;;;20.20;99.90;;;;;;4994004;28;20848;-72
2022/09/24 13:13:26;;;;;;;29.30;17.73;;;20.20;99.90;;;;;;4993006;28;20451;-73
2022/09/24 13:16:06;;;;;;;21.27;13.07;;;20.10;99.90;;;;;;4994050;28;20436;-73
2022/09/24 13:18:34;;;;;;;12.33;8.90;;;20.10;99.90;;;;;;4994282;28;20936;-73
2022/09/24 13:21:04;;;;;;;11.33;7.13;;;20.10;99.90;;;;;;4994387;28;20412;-74